createdAt,value
2016-06-30T00:00:18.898Z,0
2016-06-30T00:01:20.773Z,0
2016-06-30T00:02:20.159Z,0
2016-06-30T00:03:20.122Z,0
2016-06-30T00:04:20.130Z,0
2016-06-30T00:05:19.534Z,0
2016-06-30T00:06:20.140Z,0
2016-06-30T00:07:20.154Z,0
2016-06-30T00:08:19.532Z,0
2016-06-30T00:09:19.679Z,0
2016-06-30T00:10:20.171Z,0
2016-06-30T00:11:21.127Z,0
2016-06-30T00:12:20.225Z,0
2016-06-30T00:13:19.445Z,0
2016-06-30T00:14:20.220Z,0
2016-06-30T00:15:20.210Z,0
2016-06-30T00:16:20.806Z,0
2016-06-30T00:17:20.189Z,0
2016-06-30T00:18:18.980Z,0
2016-06-30T00:19:20.867Z,0
2016-06-30T00:20:20.223Z,0
2016-06-30T00:21:20.227Z,0
2016-06-30T00:22:21.115Z,0
2016-06-30T00:23:20.230Z,0
2016-06-30T00:24:20.295Z,0
2016-06-30T00:25:19.619Z,0
2016-06-30T00:26:20.240Z,0
2016-06-30T00:27:20.259Z,0
2016-06-30T00:28:20.231Z,0
2016-06-30T00:29:19.635Z,0
2016-06-30T00:30:20.267Z,0
2016-06-30T00:31:20.263Z,0
2016-06-30T00:32:19.693Z,0
2016-06-30T00:33:21.103Z,0
2016-06-30T00:34:20.276Z,0
2016-06-30T00:35:21.858Z,0
2016-06-30T00:36:19.670Z,0
2016-06-30T00:37:19.035Z,0
2016-06-30T00:38:20.925Z,0
2016-06-30T00:39:20.304Z,0
2016-06-30T00:40:19.683Z,0
2016-06-30T00:41:19.903Z,0
2016-06-30T00:42:20.646Z,0
2016-06-30T00:43:20.301Z,0
2016-06-30T00:44:20.697Z,0
2016-06-30T00:45:19.727Z,0
2016-06-30T00:46:19.830Z,0
2016-06-30T00:47:19.078Z,0
2016-06-30T00:48:20.504Z,0
2016-06-30T00:49:20.327Z,0
2016-06-30T00:50:19.715Z,0
2016-06-30T00:51:19.735Z,0
2016-06-30T00:52:20.338Z,0
2016-06-30T00:53:20.962Z,0
2016-06-30T00:54:20.349Z,0
2016-06-30T00:55:20.757Z,0
2016-06-30T00:56:20.347Z,0
2016-06-30T00:57:21.513Z,0
2016-06-30T00:58:19.739Z,0
2016-06-30T00:59:19.997Z,0
2016-06-30T01:00:20.428Z,0
2016-06-30T01:01:19.770Z,0
2016-06-30T01:02:20.412Z,0
2016-06-30T01:03:20.996Z,0
2016-06-30T01:04:20.419Z,0
2016-06-30T01:05:19.803Z,0
2016-06-30T01:06:20.456Z,0
2016-06-30T01:07:21.102Z,0
2016-06-30T01:08:21.150Z,0
2016-06-30T01:09:19.794Z,0
2016-06-30T01:10:20.531Z,0
2016-06-30T01:11:19.810Z,0
2016-06-30T01:12:20.462Z,0
2016-06-30T01:13:20.450Z,0
2016-06-30T01:14:20.433Z,0
2016-06-30T01:15:21.077Z,0
2016-06-30T01:16:20.449Z,0
2016-06-30T01:17:20.162Z,0
2016-06-30T01:18:19.881Z,0
2016-06-30T01:19:21.655Z,0
2016-06-30T01:20:19.850Z,0
2016-06-30T01:21:21.354Z,0
2016-06-30T01:22:19.246Z,0
2016-06-30T01:23:21.102Z,0
2016-06-30T01:24:21.108Z,0
2016-06-30T01:25:19.888Z,0
2016-06-30T01:26:20.480Z,0
2016-06-30T01:27:19.897Z,0
2016-06-30T01:28:19.303Z,0
2016-06-30T01:29:19.941Z,0
2016-06-30T01:30:21.259Z,0
2016-06-30T01:31:20.525Z,0
2016-06-30T01:32:22.574Z,0
2016-06-30T01:33:19.907Z,0
2016-06-30T01:34:19.936Z,0
2016-06-30T01:35:21.169Z,0
2016-06-30T01:36:21.148Z,0
2016-06-30T01:37:21.157Z,0
2016-06-30T01:38:19.942Z,0
2016-06-30T01:39:20.566Z,0
2016-06-30T01:40:19.958Z,0
2016-06-30T01:41:21.523Z,0
2016-06-30T01:42:20.622Z,0
2016-06-30T01:43:21.263Z,0
2016-06-30T01:44:19.971Z,0
2016-06-30T01:45:21.963Z,0
2016-06-30T01:46:20.612Z,0
2016-06-30T01:47:20.587Z,0
2016-06-30T01:48:21.222Z,0
2016-06-30T01:49:18.737Z,0
2016-06-30T01:50:21.247Z,0
2016-06-30T01:51:21.311Z,0
2016-06-30T01:52:21.062Z,0
2016-06-30T01:53:21.242Z,0
2016-06-30T01:54:22.252Z,0
2016-06-30T01:55:20.028Z,0
2016-06-30T01:56:22.162Z,0
2016-06-30T01:57:20.629Z,0
2016-06-30T01:58:21.363Z,0
2016-06-30T01:59:20.073Z,0
2016-06-30T02:00:20.670Z,0
2016-06-30T02:01:20.032Z,0
2016-06-30T02:02:19.430Z,0
2016-06-30T02:03:21.767Z,0
2016-06-30T02:04:21.306Z,0
2016-06-30T02:05:20.679Z,0
2016-06-30T02:06:20.050Z,0
2016-06-30T02:07:21.769Z,0
2016-06-30T02:08:20.682Z,0
2016-06-30T02:09:20.767Z,0
2016-06-30T02:10:20.754Z,0
2016-06-30T02:11:20.099Z,0
2016-06-30T02:12:20.089Z,0
2016-06-30T02:13:20.736Z,0
2016-06-30T02:14:20.101Z,0
2016-06-30T02:15:19.550Z,0
2016-06-30T02:16:20.256Z,0
2016-06-30T02:17:21.362Z,0
2016-06-30T02:18:22.182Z,0
2016-06-30T02:19:20.136Z,0
2016-06-30T02:20:20.742Z,0
2016-06-30T02:21:20.742Z,0
2016-06-30T02:22:20.133Z,0
2016-06-30T02:23:20.160Z,0
2016-06-30T02:24:20.781Z,0
2016-06-30T02:25:19.529Z,0
2016-06-30T02:26:20.174Z,0
2016-06-30T02:27:21.407Z,0
2016-06-30T02:28:20.845Z,0
2016-06-30T02:29:21.303Z,0
2016-06-30T02:30:20.832Z,0
2016-06-30T02:31:20.386Z,0
2016-06-30T02:32:20.183Z,0
2016-06-30T02:33:20.827Z,0
2016-06-30T02:34:20.813Z,0
2016-06-30T02:35:20.242Z,0
2016-06-30T02:36:20.838Z,0
2016-06-30T02:37:20.219Z,0
2016-06-30T02:38:20.825Z,0
2016-06-30T02:39:20.862Z,0
2016-06-30T02:40:22.084Z,0
2016-06-30T02:41:19.650Z,0
2016-06-30T02:42:21.030Z,0
2016-06-30T02:43:20.911Z,0
2016-06-30T02:44:20.962Z,0
2016-06-30T02:45:19.637Z,0
2016-06-30T02:46:20.870Z,0
2016-06-30T02:47:21.501Z,0
2016-06-30T02:48:20.877Z,0
2016-06-30T02:49:20.285Z,0
2016-06-30T02:50:20.291Z,0
2016-06-30T02:51:19.662Z,0
2016-06-30T02:52:20.298Z,0
2016-06-30T02:53:20.443Z,0
2016-06-30T02:54:19.695Z,0
2016-06-30T02:55:20.912Z,0
2016-06-30T02:56:20.939Z,0
2016-06-30T02:57:20.923Z,0
2016-06-30T02:58:20.929Z,0
2016-06-30T02:59:20.319Z,0
2016-06-30T03:00:20.970Z,0
2016-06-30T03:01:20.948Z,0
2016-06-30T03:02:22.199Z,0
2016-06-30T03:03:20.949Z,0
2016-06-30T03:04:20.951Z,0
2016-06-30T03:05:21.577Z,0
2016-06-30T03:06:19.722Z,0
2016-06-30T03:07:20.966Z,0
2016-06-30T03:08:20.986Z,0
2016-06-30T03:09:21.006Z,0
2016-06-30T03:10:21.038Z,0
2016-06-30T03:11:21.019Z,0
2016-06-30T03:12:20.375Z,0
2016-06-30T03:13:22.128Z,0
2016-06-30T03:14:21.001Z,0
2016-06-30T03:15:22.277Z,0
2016-06-30T03:16:21.628Z,0
2016-06-30T03:17:21.621Z,0
2016-06-30T03:18:20.407Z,0
2016-06-30T03:19:20.414Z,0
2016-06-30T03:20:21.668Z,0
2016-06-30T03:21:20.426Z,0
2016-06-30T03:22:21.478Z,0
2016-06-30T03:23:20.744Z,0
2016-06-30T03:24:22.513Z,0
2016-06-30T03:25:19.837Z,0
2016-06-30T03:26:20.500Z,0
2016-06-30T03:27:21.671Z,0
2016-06-30T03:28:21.866Z,0
2016-06-30T03:29:21.084Z,0
2016-06-30T03:30:21.062Z,0
2016-06-30T03:31:21.069Z,0
2016-06-30T03:32:21.083Z,0
2016-06-30T03:33:21.712Z,0
2016-06-30T03:34:21.075Z,0
2016-06-30T03:35:22.137Z,0
2016-06-30T03:36:21.088Z,0
2016-06-30T03:37:20.466Z,0
2016-06-30T03:38:21.091Z,0
2016-06-30T03:39:22.038Z,0
2016-06-30T03:40:21.131Z,0
2016-06-30T03:41:21.769Z,0
2016-06-30T03:42:20.522Z,0
2016-06-30T03:43:20.562Z,0
2016-06-30T03:44:21.144Z,0
2016-06-30T03:45:21.195Z,0
2016-06-30T03:46:21.027Z,0
2016-06-30T03:47:21.141Z,0
2016-06-30T03:48:22.985Z,0
2016-06-30T03:49:20.623Z,0
2016-06-30T03:50:21.487Z,0
2016-06-30T03:51:21.171Z,0
2016-06-30T03:52:21.153Z,0
2016-06-30T03:53:21.181Z,0
2016-06-30T03:54:21.173Z,0
2016-06-30T03:55:21.790Z,0
2016-06-30T03:56:20.571Z,0
2016-06-30T03:57:21.806Z,0
2016-06-30T03:58:21.195Z,0
2016-06-30T03:59:21.777Z,0
2016-06-30T04:00:21.207Z,0
2016-06-30T04:01:21.531Z,0
2016-06-30T04:02:21.201Z,0
2016-06-30T04:03:19.979Z,0
2016-06-30T04:04:21.195Z,0
2016-06-30T04:05:20.610Z,0
2016-06-30T04:06:20.606Z,0
2016-06-30T04:07:21.237Z,0
2016-06-30T04:08:19.380Z,0
2016-06-30T04:09:21.248Z,0
2016-06-30T04:10:22.972Z,0
2016-06-30T04:11:21.929Z,0
2016-06-30T04:12:21.450Z,0
2016-06-30T04:13:21.884Z,0
2016-06-30T04:14:20.638Z,0
2016-06-30T04:15:21.894Z,0
2016-06-30T04:16:20.665Z,0
2016-06-30T04:17:21.262Z,0
2016-06-30T04:18:20.666Z,0
2016-06-30T04:19:20.651Z,0
2016-06-30T04:20:21.306Z,0
2016-06-30T04:21:22.439Z,0
2016-06-30T04:22:21.919Z,0
2016-06-30T04:23:21.731Z,0
2016-06-30T04:24:20.684Z,0
2016-06-30T04:25:23.036Z,0
2016-06-30T04:26:21.300Z,0
2016-06-30T04:27:20.073Z,0
2016-06-30T04:28:19.467Z,0
2016-06-30T04:29:21.927Z,0
2016-06-30T04:30:21.332Z,0
2016-06-30T04:31:21.343Z,0
2016-06-30T04:32:22.668Z,0
2016-06-30T04:33:20.701Z,0
2016-06-30T04:34:21.345Z,0
2016-06-30T04:35:20.713Z,0
2016-06-30T04:36:22.023Z,0
2016-06-30T04:37:21.413Z,0
2016-06-30T04:38:21.959Z,0
2016-06-30T04:39:20.757Z,0
2016-06-30T04:40:20.135Z,0
2016-06-30T04:41:20.111Z,0
2016-06-30T04:42:20.107Z,0
2016-06-30T04:43:20.764Z,0
2016-06-30T04:44:21.474Z,0
2016-06-30T04:45:21.089Z,0
2016-06-30T04:46:21.998Z,0
2016-06-30T04:47:23.015Z,0
2016-06-30T04:48:21.411Z,0
2016-06-30T04:49:21.441Z,0
2016-06-30T04:50:22.022Z,0
2016-06-30T04:51:20.781Z,0
2016-06-30T04:52:20.174Z,0
2016-06-30T04:53:20.206Z,0
2016-06-30T04:54:20.799Z,0
2016-06-30T04:55:21.436Z,0
2016-06-30T04:56:20.818Z,0
2016-06-30T04:57:20.198Z,0
2016-06-30T04:58:22.503Z,5
2016-06-30T04:59:20.834Z,5
2016-06-30T05:00:21.276Z,5
2016-06-30T05:01:21.450Z,5
2016-06-30T05:02:22.081Z,5
2016-06-30T05:03:22.092Z,5
2016-06-30T05:04:20.843Z,5
2016-06-30T05:05:22.090Z,5
2016-06-30T05:06:22.066Z,5
2016-06-30T05:07:21.467Z,5
2016-06-30T05:08:21.470Z,5
2016-06-30T05:09:20.866Z,5
2016-06-30T05:10:21.491Z,5
2016-06-30T05:11:21.369Z,5
2016-06-30T05:12:21.481Z,5
2016-06-30T05:13:22.095Z,5
2016-06-30T05:14:22.119Z,5
2016-06-30T05:15:21.539Z,5
2016-06-30T05:16:22.117Z,5
2016-06-30T05:17:21.510Z,5
2016-06-30T05:18:22.177Z,5
2016-06-30T05:19:20.926Z,5
2016-06-30T05:20:22.461Z,5
2016-06-30T05:21:21.539Z,5
2016-06-30T05:22:23.063Z,5
2016-06-30T05:23:20.909Z,5
2016-06-30T05:24:22.148Z,5
2016-06-30T05:25:21.560Z,5
2016-06-30T05:26:20.321Z,5
2016-06-30T05:27:20.315Z,5
2016-06-30T05:28:20.967Z,5
2016-06-30T05:29:21.566Z,5
2016-06-30T05:30:21.569Z,5
2016-06-30T05:31:22.662Z,5
2016-06-30T05:32:22.211Z,5
2016-06-30T05:33:21.270Z,5
2016-06-30T05:34:21.603Z,5
2016-06-30T05:35:21.585Z,5
2016-06-30T05:36:21.603Z,5
2016-06-30T05:37:21.703Z,5
2016-06-30T05:38:21.597Z,5
2016-06-30T05:39:22.223Z,5
2016-06-30T05:40:21.628Z,10
2016-06-30T05:41:22.230Z,10
2016-06-30T05:42:21.678Z,10
2016-06-30T05:43:21.014Z,10
2016-06-30T05:44:21.675Z,10
2016-06-30T05:45:22.480Z,15
2016-06-30T05:46:22.264Z,15
2016-06-30T05:47:21.705Z,15
2016-06-30T05:48:20.999Z,15
2016-06-30T05:49:21.690Z,15
2016-06-30T05:50:21.670Z,15
2016-06-30T05:51:21.656Z,15
2016-06-30T05:52:21.668Z,15
2016-06-30T05:53:22.323Z,15
2016-06-30T05:54:21.688Z,15
2016-06-30T05:55:21.088Z,15
2016-06-30T05:56:22.330Z,15
2016-06-30T05:57:22.246Z,15
2016-06-30T05:58:22.318Z,15
2016-06-30T05:59:21.076Z,15
2016-06-30T06:00:21.741Z,15
2016-06-30T06:01:21.078Z,15
2016-06-30T06:02:21.066Z,15
2016-06-30T06:03:22.312Z,20
2016-06-30T06:04:22.411Z,20
2016-06-30T06:05:21.710Z,20
2016-06-30T06:06:21.102Z,20
2016-06-30T06:07:22.358Z,20
2016-06-30T06:08:22.345Z,20
2016-06-30T06:09:21.739Z,20
2016-06-30T06:10:21.751Z,20
2016-06-30T06:11:21.751Z,20
2016-06-30T06:12:21.133Z,20
2016-06-30T06:13:21.766Z,25
2016-06-30T06:14:21.775Z,25
2016-06-30T06:15:22.110Z,25
2016-06-30T06:16:21.195Z,30
2016-06-30T06:17:22.954Z,35
2016-06-30T06:18:21.798Z,35
2016-06-30T06:19:22.678Z,35
2016-06-30T06:20:20.562Z,35
2016-06-30T06:21:21.820Z,40
2016-06-30T06:22:21.215Z,40
2016-06-30T06:23:21.200Z,45
2016-06-30T06:24:22.420Z,40
2016-06-30T06:25:21.875Z,40
2016-06-30T06:26:22.439Z,40
2016-06-30T06:27:20.594Z,35
2016-06-30T06:28:21.238Z,40
2016-06-30T06:29:21.218Z,40
2016-06-30T06:30:21.893Z,40
2016-06-30T06:31:21.831Z,45
2016-06-30T06:32:21.883Z,45
2016-06-30T06:33:22.467Z,50
2016-06-30T06:34:21.868Z,55
2016-06-30T06:35:22.466Z,55
2016-06-30T06:36:21.850Z,60
2016-06-30T06:37:21.315Z,60
2016-06-30T06:38:22.515Z,60
2016-06-30T06:39:20.296Z,65
2016-06-30T06:40:21.266Z,85
2016-06-30T06:41:22.904Z,140
2016-06-30T06:42:21.876Z,270
2016-06-30T06:43:22.903Z,650
2016-06-30T06:44:22.542Z,375
2016-06-30T06:45:20.720Z,245
2016-06-30T06:46:21.907Z,265
2016-06-30T06:47:21.953Z,325
2016-06-30T06:48:21.932Z,190
2016-06-30T06:49:22.543Z,145
2016-06-30T06:50:21.308Z,115
2016-06-30T06:51:21.674Z,105
2016-06-30T06:52:23.960Z,110
2016-06-30T06:53:22.563Z,115
2016-06-30T06:54:23.234Z,120
2016-06-30T06:55:22.596Z,85
2016-06-30T06:56:21.324Z,70
2016-06-30T06:57:21.994Z,60
2016-06-30T06:58:21.354Z,60
2016-06-30T06:59:20.750Z,60
2016-06-30T07:00:21.976Z,65
2016-06-30T07:01:23.333Z,75
2016-06-30T07:02:21.971Z,75
2016-06-30T07:03:22.605Z,80
2016-06-30T07:04:21.401Z,70
2016-06-30T07:05:23.066Z,65
2016-06-30T07:06:21.385Z,45
2016-06-30T07:07:22.016Z,40
2016-06-30T07:08:22.630Z,40
2016-06-30T07:09:22.632Z,40
2016-06-30T07:10:21.425Z,40
2016-06-30T07:11:22.031Z,35
2016-06-30T07:12:22.055Z,35
2016-06-30T07:13:22.665Z,30
2016-06-30T07:14:21.571Z,30
2016-06-30T07:15:22.697Z,30
2016-06-30T07:16:22.895Z,30
2016-06-30T07:17:22.066Z,30
2016-06-30T07:18:22.054Z,25
2016-06-30T07:19:22.084Z,25
2016-06-30T07:20:22.106Z,25
2016-06-30T07:21:22.695Z,25
2016-06-30T07:22:22.707Z,35
2016-06-30T07:23:22.084Z,45
2016-06-30T07:24:20.865Z,50
2016-06-30T07:25:23.730Z,50
2016-06-30T07:26:22.754Z,50
2016-06-30T07:27:22.441Z,50
2016-06-30T07:28:22.109Z,50
2016-06-30T07:29:21.548Z,45
2016-06-30T07:30:21.506Z,40
2016-06-30T07:31:22.138Z,35
2016-06-30T07:32:22.141Z,35
2016-06-30T07:33:22.130Z,30
2016-06-30T07:34:22.137Z,25
2016-06-30T07:35:20.296Z,25
2016-06-30T07:36:20.918Z,25
2016-06-30T07:37:20.924Z,25
2016-06-30T07:38:22.490Z,30
2016-06-30T07:39:22.158Z,30
2016-06-30T07:40:21.567Z,25
2016-06-30T07:41:22.167Z,30
2016-06-30T07:42:22.190Z,30
2016-06-30T07:43:22.198Z,40
2016-06-30T07:44:20.944Z,40
2016-06-30T07:45:22.822Z,40
2016-06-30T07:46:22.853Z,45
2016-06-30T07:47:23.793Z,45
2016-06-30T07:48:20.986Z,45
2016-06-30T07:49:22.606Z,45
2016-06-30T07:50:21.594Z,45
2016-06-30T07:51:23.187Z,50
2016-06-30T07:52:21.646Z,55
2016-06-30T07:53:21.589Z,55
2016-06-30T07:54:21.607Z,55
2016-06-30T07:55:22.867Z,55
2016-06-30T07:56:20.413Z,55
2016-06-30T07:57:22.228Z,50
2016-06-30T07:58:21.664Z,50
2016-06-30T07:59:20.394Z,50
2016-06-30T08:00:22.719Z,50
2016-06-30T08:01:21.653Z,50
2016-06-30T08:02:23.654Z,50
2016-06-30T08:03:22.882Z,50
2016-06-30T08:04:21.665Z,55
2016-06-30T08:05:22.298Z,45
2016-06-30T08:06:22.922Z,45
2016-06-30T08:07:22.298Z,40
2016-06-30T08:08:22.293Z,35
2016-06-30T08:09:22.341Z,35
2016-06-30T08:10:22.945Z,35
2016-06-30T08:11:23.171Z,40
2016-06-30T08:12:21.677Z,45
2016-06-30T08:13:24.330Z,45
2016-06-30T08:14:22.349Z,50
2016-06-30T08:15:22.827Z,45
2016-06-30T08:16:22.946Z,40
2016-06-30T08:17:22.347Z,45
2016-06-30T08:18:22.362Z,45
2016-06-30T08:19:22.345Z,45
2016-06-30T08:20:22.357Z,45
2016-06-30T08:21:22.427Z,40
2016-06-30T08:22:23.153Z,45
2016-06-30T08:23:21.750Z,50
2016-06-30T08:24:22.379Z,60
2016-06-30T08:25:23.002Z,60
2016-06-30T08:26:23.053Z,55
2016-06-30T08:27:22.996Z,45
2016-06-30T08:28:21.199Z,40
2016-06-30T08:29:22.402Z,40
2016-06-30T08:30:21.803Z,45
2016-06-30T08:31:23.036Z,50
2016-06-30T08:32:22.391Z,65
2016-06-30T08:33:23.014Z,60
2016-06-30T08:34:22.417Z,70
2016-06-30T08:35:24.399Z,65
2016-06-30T08:36:22.444Z,75
2016-06-30T08:37:23.491Z,80
2016-06-30T08:38:22.465Z,80
2016-06-30T08:39:23.058Z,75
2016-06-30T08:40:22.691Z,80
2016-06-30T08:41:23.076Z,80
2016-06-30T08:42:23.116Z,85
2016-06-30T08:43:22.468Z,90
2016-06-30T08:44:23.222Z,105
2016-06-30T08:45:22.488Z,85
2016-06-30T08:46:23.961Z,80
2016-06-30T08:47:21.923Z,90
2016-06-30T08:48:23.086Z,70
2016-06-30T08:49:21.886Z,50
2016-06-30T08:50:22.533Z,50
2016-06-30T08:51:22.507Z,60
2016-06-30T08:52:23.135Z,50
2016-06-30T08:53:22.661Z,40
2016-06-30T08:54:22.520Z,40
2016-06-30T08:55:22.745Z,35
2016-06-30T08:56:23.373Z,35
2016-06-30T08:57:23.287Z,35
2016-06-30T08:58:21.959Z,35
2016-06-30T08:59:23.227Z,45
2016-06-30T09:00:22.592Z,60
2016-06-30T09:01:23.841Z,70
2016-06-30T09:02:23.220Z,70
2016-06-30T09:03:22.593Z,90
2016-06-30T09:04:21.995Z,95
2016-06-30T09:05:23.217Z,105
2016-06-30T09:06:21.968Z,100
2016-06-30T09:07:23.231Z,100
2016-06-30T09:08:23.097Z,95
2016-06-30T09:09:22.612Z,95
2016-06-30T09:10:23.266Z,110
2016-06-30T09:11:22.652Z,115
2016-06-30T09:12:23.769Z,140
2016-06-30T09:13:22.022Z,155
2016-06-30T09:14:22.037Z,155
2016-06-30T09:15:23.253Z,155
2016-06-30T09:16:23.255Z,155
2016-06-30T09:17:22.043Z,165
2016-06-30T09:18:23.288Z,165
2016-06-30T09:19:22.086Z,170
2016-06-30T09:20:23.269Z,155
2016-06-30T09:21:22.661Z,135
2016-06-30T09:22:23.671Z,155
2016-06-30T09:23:23.942Z,140
2016-06-30T09:24:23.333Z,125
2016-06-30T09:25:22.705Z,110
2016-06-30T09:26:23.352Z,100
2016-06-30T09:27:22.098Z,120
2016-06-30T09:28:22.701Z,130
2016-06-30T09:29:23.365Z,140
2016-06-30T09:30:23.835Z,165
2016-06-30T09:31:21.522Z,180
2016-06-30T09:32:23.380Z,185
2016-06-30T09:33:22.132Z,145
2016-06-30T09:34:23.857Z,135
2016-06-30T09:35:23.375Z,110
2016-06-30T09:36:20.918Z,95
2016-06-30T09:37:22.155Z,105
2016-06-30T09:38:22.774Z,105
2016-06-30T09:39:22.789Z,90
2016-06-30T09:40:22.179Z,70
2016-06-30T09:41:22.189Z,65
2016-06-30T09:42:22.814Z,55
2016-06-30T09:43:24.721Z,60
2016-06-30T09:44:23.446Z,55
2016-06-30T09:45:23.863Z,55
2016-06-30T09:46:21.571Z,65
2016-06-30T09:47:22.840Z,70
2016-06-30T09:48:22.839Z,85
2016-06-30T09:49:21.648Z,85
2016-06-30T09:50:23.458Z,80
2016-06-30T09:51:21.636Z,80
2016-06-30T09:52:22.922Z,80
2016-06-30T09:53:22.283Z,75
2016-06-30T09:54:24.182Z,80
2016-06-30T09:55:21.866Z,100
2016-06-30T09:56:23.909Z,125
2016-06-30T09:57:23.493Z,135
2016-06-30T09:58:22.264Z,165
2016-06-30T09:59:22.895Z,150
2016-06-30T10:00:21.682Z,145
2016-06-30T10:01:22.905Z,155
2016-06-30T10:02:22.934Z,150
2016-06-30T10:03:23.548Z,135
2016-06-30T10:04:23.587Z,125
2016-06-30T10:05:24.093Z,120
2016-06-30T10:06:22.997Z,120
2016-06-30T10:07:23.440Z,115
2016-06-30T10:08:23.078Z,115
2016-06-30T10:09:21.198Z,130
2016-06-30T10:10:23.566Z,125
2016-06-30T10:11:23.584Z,120
2016-06-30T10:12:21.768Z,110
2016-06-30T10:13:22.354Z,90
2016-06-30T10:14:23.603Z,70
2016-06-30T10:15:21.769Z,65
2016-06-30T10:16:24.087Z,50
2016-06-30T10:17:22.378Z,40
2016-06-30T10:18:22.982Z,35
2016-06-30T10:19:23.034Z,30
2016-06-30T10:20:23.628Z,25
2016-06-30T10:21:22.392Z,25
2016-06-30T10:22:21.797Z,25
2016-06-30T10:23:23.034Z,25
2016-06-30T10:24:23.034Z,30
2016-06-30T10:25:23.056Z,20
2016-06-30T10:26:23.037Z,15
2016-06-30T10:27:23.121Z,15
2016-06-30T10:28:23.073Z,15
2016-06-30T10:29:22.548Z,15
2016-06-30T10:30:23.093Z,25
2016-06-30T10:31:23.924Z,35
2016-06-30T10:32:22.479Z,55
2016-06-30T10:33:23.152Z,70
2016-06-30T10:34:22.473Z,75
2016-06-30T10:35:23.721Z,70
2016-06-30T10:36:22.495Z,70
2016-06-30T10:37:23.096Z,65
2016-06-30T10:38:23.107Z,65
2016-06-30T10:39:23.719Z,65
2016-06-30T10:40:22.508Z,60
2016-06-30T10:41:23.121Z,60
2016-06-30T10:42:24.836Z,55
2016-06-30T10:43:23.755Z,50
2016-06-30T10:44:24.723Z,45
2016-06-30T10:45:22.042Z,45
2016-06-30T10:46:23.198Z,40
2016-06-30T10:47:23.799Z,40
2016-06-30T10:48:23.152Z,40
2016-06-30T10:49:23.239Z,35
2016-06-30T10:50:21.957Z,35
2016-06-30T10:51:23.175Z,35
2016-06-30T10:52:23.806Z,35
2016-06-30T10:53:23.928Z,35
2016-06-30T10:54:23.909Z,35
2016-06-30T10:55:23.861Z,35
2016-06-30T10:56:23.905Z,40
2016-06-30T10:57:22.608Z,40
2016-06-30T10:58:23.267Z,45
2016-06-30T10:59:23.214Z,55
2016-06-30T11:00:22.663Z,60
2016-06-30T11:01:22.023Z,60
2016-06-30T11:02:23.301Z,55
2016-06-30T11:03:23.246Z,50
2016-06-30T11:04:23.504Z,50
2016-06-30T11:05:23.891Z,50
2016-06-30T11:06:23.258Z,50
2016-06-30T11:07:22.650Z,45
2016-06-30T11:08:22.723Z,50
2016-06-30T11:09:23.309Z,60
2016-06-30T11:10:23.296Z,65
2016-06-30T11:11:22.688Z,70
2016-06-30T11:12:22.072Z,70
2016-06-30T11:13:23.299Z,65
2016-06-30T11:14:23.315Z,55
2016-06-30T11:15:24.199Z,55
2016-06-30T11:16:22.722Z,50
2016-06-30T11:17:23.333Z,40
2016-06-30T11:18:23.950Z,40
2016-06-30T11:19:22.731Z,45
2016-06-30T11:20:23.949Z,45
2016-06-30T11:21:23.349Z,45
2016-06-30T11:22:23.350Z,45
2016-06-30T11:23:23.363Z,45
2016-06-30T11:24:23.384Z,45
2016-06-30T11:25:22.778Z,50
2016-06-30T11:26:24.517Z,55
2016-06-30T11:27:22.773Z,55
2016-06-30T11:28:25.042Z,45
2016-06-30T11:29:24.028Z,40
2016-06-30T11:30:24.511Z,35
2016-06-30T11:31:22.816Z,35
2016-06-30T11:32:24.035Z,30
2016-06-30T11:33:24.030Z,25
2016-06-30T11:34:22.815Z,20
2016-06-30T11:35:24.056Z,20
2016-06-30T11:36:22.209Z,15
2016-06-30T11:37:24.123Z,15
2016-06-30T11:38:24.068Z,15
2016-06-30T11:39:23.466Z,10
2016-06-30T11:40:24.101Z,10
2016-06-30T11:41:23.973Z,10
2016-06-30T11:42:24.107Z,10
2016-06-30T11:43:24.139Z,15
2016-06-30T11:44:34.120Z,15
2016-06-30T11:45:23.499Z,15
2016-06-30T11:46:23.480Z,15
2016-06-30T11:47:22.919Z,15
2016-06-30T11:48:23.641Z,15
2016-06-30T11:49:23.583Z,15
2016-06-30T11:50:23.559Z,15
2016-06-30T11:51:22.974Z,15
2016-06-30T11:52:24.257Z,15
2016-06-30T11:53:22.890Z,15
2016-06-30T11:54:24.225Z,15
2016-06-30T11:55:22.940Z,15
2016-06-30T11:56:22.933Z,15
2016-06-30T11:57:23.567Z,15
2016-06-30T11:58:23.581Z,20
2016-06-30T11:59:23.613Z,20
2016-06-30T12:00:22.979Z,30
2016-06-30T12:01:23.605Z,35
2016-06-30T12:02:23.603Z,40
2016-06-30T12:03:25.328Z,45
2016-06-30T12:04:23.597Z,55
2016-06-30T12:05:22.981Z,55
2016-06-30T12:06:22.401Z,60
2016-06-30T12:07:23.008Z,55
2016-06-30T12:08:24.241Z,55
2016-06-30T12:09:23.625Z,50
2016-06-30T12:10:23.630Z,45
2016-06-30T12:11:21.778Z,50
2016-06-30T12:12:23.137Z,50
2016-06-30T12:13:23.008Z,50
2016-06-30T12:14:24.434Z,55
2016-06-30T12:15:23.650Z,60
2016-06-30T12:16:23.059Z,60
2016-06-30T12:17:23.653Z,70
2016-06-30T12:18:23.064Z,70
2016-06-30T12:19:23.693Z,75
2016-06-30T12:20:23.689Z,80
2016-06-30T12:21:23.067Z,80
2016-06-30T12:22:24.327Z,80
2016-06-30T12:23:25.283Z,75
2016-06-30T12:24:22.493Z,70
2016-06-30T12:25:24.640Z,70
2016-06-30T12:26:22.482Z,60
2016-06-30T12:27:25.210Z,45
2016-06-30T12:28:23.738Z,40
2016-06-30T12:29:22.491Z,40
2016-06-30T12:30:24.522Z,35
2016-06-30T12:31:23.779Z,30
2016-06-30T12:32:23.773Z,25
2016-06-30T12:33:23.810Z,20
2016-06-30T12:34:25.330Z,20
2016-06-30T12:35:23.158Z,20
2016-06-30T12:36:24.146Z,20
2016-06-30T12:37:23.830Z,20
2016-06-30T12:38:25.527Z,25
2016-06-30T12:39:24.406Z,30
2016-06-30T12:40:23.777Z,30
2016-06-30T12:41:24.617Z,30
2016-06-30T12:42:22.622Z,30
2016-06-30T12:43:23.809Z,30
2016-06-30T12:44:24.447Z,30
2016-06-30T12:45:24.430Z,30
2016-06-30T12:46:24.433Z,30
2016-06-30T12:47:25.102Z,35
2016-06-30T12:48:23.822Z,40
2016-06-30T12:49:23.831Z,40
2016-06-30T12:50:24.446Z,40
2016-06-30T12:51:23.262Z,45
2016-06-30T12:52:23.859Z,40
2016-06-30T12:53:23.241Z,45
2016-06-30T12:54:23.903Z,50
2016-06-30T12:55:23.954Z,55
2016-06-30T12:56:23.879Z,65
2016-06-30T12:57:23.894Z,65
2016-06-30T12:58:24.553Z,60
2016-06-30T12:59:24.512Z,55
2016-06-30T13:00:25.395Z,50
2016-06-30T13:01:24.525Z,45
2016-06-30T13:02:23.944Z,40
2016-06-30T13:03:24.047Z,40
2016-06-30T13:04:23.903Z,30
2016-06-30T13:05:23.936Z,30
2016-06-30T13:06:23.307Z,25
2016-06-30T13:07:23.920Z,25
2016-06-30T13:08:24.554Z,20
2016-06-30T13:09:24.250Z,25
2016-06-30T13:10:23.948Z,25
2016-06-30T13:11:25.586Z,25
2016-06-30T13:12:23.956Z,25
2016-06-30T13:13:24.136Z,30
2016-06-30T13:14:23.971Z,30
2016-06-30T13:15:22.132Z,30
2016-06-30T13:16:22.753Z,30
2016-06-30T13:17:24.712Z,35
2016-06-30T13:18:22.769Z,30
2016-06-30T13:19:23.407Z,30
2016-06-30T13:20:24.910Z,30
2016-06-30T13:21:23.408Z,25
2016-06-30T13:22:23.403Z,20
2016-06-30T13:23:23.408Z,15
2016-06-30T13:24:24.279Z,15
2016-06-30T13:25:24.660Z,15
2016-06-30T13:26:24.671Z,15
2016-06-30T13:27:24.068Z,15
2016-06-30T13:28:24.058Z,15
2016-06-30T13:29:24.036Z,15
2016-06-30T13:30:24.089Z,15
2016-06-30T13:31:23.441Z,10
2016-06-30T13:32:24.076Z,10
2016-06-30T13:33:24.616Z,10
2016-06-30T13:34:23.459Z,10
2016-06-30T13:35:24.101Z,15
2016-06-30T13:36:24.092Z,15
2016-06-30T13:37:24.100Z,15
2016-06-30T13:38:24.119Z,15
2016-06-30T13:39:24.152Z,15
2016-06-30T13:40:24.729Z,15
2016-06-30T13:41:24.743Z,20
2016-06-30T13:42:22.895Z,20
2016-06-30T13:43:24.151Z,20
2016-06-30T13:44:25.246Z,20
2016-06-30T13:45:24.769Z,20
2016-06-30T13:46:23.908Z,25
2016-06-30T13:47:24.164Z,30
2016-06-30T13:48:24.149Z,35
2016-06-30T13:49:24.193Z,35
2016-06-30T13:50:24.785Z,30
2016-06-30T13:51:23.548Z,30
2016-06-30T13:52:24.244Z,30
2016-06-30T13:53:24.174Z,30
2016-06-30T13:54:24.193Z,30
2016-06-30T13:55:25.077Z,30
2016-06-30T13:56:24.206Z,30
2016-06-30T13:57:25.682Z,30
2016-06-30T13:58:23.589Z,30
2016-06-30T13:59:24.957Z,35
2016-06-30T14:00:24.249Z,35
2016-06-30T14:01:24.219Z,30
2016-06-30T14:02:24.850Z,30
2016-06-30T14:03:24.237Z,25
2016-06-30T14:04:24.237Z,25
2016-06-30T14:05:24.262Z,25
2016-06-30T14:06:25.347Z,25
2016-06-30T14:07:24.259Z,30
2016-06-30T14:08:23.947Z,35
2016-06-30T14:09:24.273Z,40
2016-06-30T14:10:25.243Z,35
2016-06-30T14:11:24.901Z,35
2016-06-30T14:12:23.687Z,35
2016-06-30T14:13:24.915Z,30
2016-06-30T14:14:24.313Z,30
2016-06-30T14:15:23.690Z,30
2016-06-30T14:16:23.684Z,25
2016-06-30T14:17:24.196Z,25
2016-06-30T14:18:23.702Z,20
2016-06-30T14:19:26.145Z,20
2016-06-30T14:20:24.950Z,20
2016-06-30T14:21:25.351Z,20
2016-06-30T14:22:23.756Z,20
2016-06-30T14:23:24.372Z,25
2016-06-30T14:24:24.983Z,25
2016-06-30T14:25:24.350Z,30